createdAt,value
2022-12-20T00:00:30.944Z,29.10
2022-12-20T00:01:31.026Z,26.90
2022-12-20T00:02:31.088Z,29.80
2022-12-20T00:03:30.919Z,30.10
2022-12-20T00:04:30.932Z,27.50
2022-12-20T00:05:30.889Z,29.20
2022-12-20T00:06:30.904Z,29.20
2022-12-20T00:07:30.874Z,29.60
2022-12-20T00:08:31.882Z,28.00
2022-12-20T00:09:30.875Z,27.70
2022-12-20T00:10:30.859Z,27.70
2022-12-20T00:11:30.859Z,31.70
2022-12-20T00:12:30.823Z,27.90
2022-12-20T00:13:30.820Z,29.70
2022-12-20T00:14:30.848Z,30.40
2022-12-20T00:15:30.803Z,28.50
2022-12-20T00:16:30.776Z,27.20
2022-12-20T00:17:30.808Z,28.70
2022-12-20T00:18:30.762Z,28.40
2022-12-20T00:19:30.766Z,30.80
2022-12-20T00:20:30.754Z,29.20
2022-12-20T00:21:30.730Z,28.30
2022-12-20T00:22:30.709Z,29.50
2022-12-20T00:23:30.717Z,27.70
2022-12-20T00:24:30.721Z,29.60
2022-12-20T00:25:30.684Z,30.30
2022-12-20T00:26:30.684Z,28.80
2022-12-20T00:27:30.676Z,29.30
2022-12-20T00:28:30.677Z,30.90
2022-12-20T00:29:30.689Z,28.20
2022-12-20T00:30:30.656Z,28.40
2022-12-20T00:31:30.676Z,31.50
2022-12-20T00:32:30.631Z,28.80
2022-12-20T00:33:30.619Z,28.90
2022-12-20T00:34:30.616Z,29.20
2022-12-20T00:35:30.592Z,29.50
2022-12-20T00:36:30.586Z,28.10
2022-12-20T00:37:30.629Z,29.80
2022-12-20T00:38:31.645Z,28.20
2022-12-20T00:39:30.571Z,28.40
2022-12-20T00:40:30.551Z,28.70
2022-12-20T00:41:30.531Z,27.40
2022-12-20T00:42:30.526Z,28.40
2022-12-20T00:43:30.525Z,28.00
2022-12-20T00:44:30.545Z,30.00
2022-12-20T00:45:30.501Z,27.90
2022-12-20T00:46:30.515Z,30.20
2022-12-20T00:47:30.473Z,28.50
2022-12-20T00:48:30.459Z,29.90
2022-12-20T00:49:30.489Z,29.90
2022-12-20T00:50:30.442Z,30.10
2022-12-20T00:51:30.450Z,28.50
2022-12-20T00:52:30.419Z,28.70
2022-12-20T00:53:30.496Z,28.00
2022-12-20T00:54:30.414Z,29.20
2022-12-20T00:55:30.397Z,28.80
2022-12-20T00:56:30.416Z,28.50
2022-12-20T00:57:30.378Z,28.90
2022-12-20T00:58:30.369Z,29.60
2022-12-20T00:59:30.360Z,28.40
2022-12-20T01:00:30.347Z,28.70
2022-12-20T01:01:30.629Z,28.40
2022-12-20T01:02:30.488Z,30.40
2022-12-20T01:03:30.353Z,27.10
2022-12-20T01:04:30.318Z,29.60
2022-12-20T01:05:30.305Z,31.60
2022-12-20T01:06:30.303Z,30.30
2022-12-20T01:07:30.275Z,31.10
2022-12-20T01:08:30.281Z,32.70
2022-12-20T01:09:30.271Z,30.20
2022-12-20T01:10:31.249Z,31.80
2022-12-20T01:11:30.235Z,30.80
2022-12-20T01:12:30.302Z,30.00
2022-12-20T01:13:30.236Z,30.30
2022-12-20T01:14:30.210Z,30.20
2022-12-20T01:15:30.207Z,30.10
2022-12-20T01:16:30.248Z,31.30
2022-12-20T01:17:30.205Z,28.60
2022-12-20T01:18:30.191Z,29.80
2022-12-20T01:19:30.188Z,28.40
2022-12-20T01:20:30.177Z,29.00
2022-12-20T01:21:30.132Z,27.10
2022-12-20T01:22:30.145Z,27.70
2022-12-20T01:23:30.118Z,27.20
2022-12-20T01:24:30.108Z,27.80
2022-12-20T01:25:30.128Z,28.50
2022-12-20T01:26:30.087Z,30.70
2022-12-20T01:27:30.083Z,28.70
2022-12-20T01:28:30.086Z,28.60
2022-12-20T01:29:30.082Z,28.50
2022-12-20T01:30:30.074Z,29.90
2022-12-20T01:31:30.185Z,27.90
2022-12-20T01:32:30.028Z,28.40
2022-12-20T01:33:31.029Z,28.70
2022-12-20T01:34:30.026Z,27.60
2022-12-20T01:35:30.014Z,28.80
2022-12-20T01:36:30.010Z,27.30
2022-12-20T01:37:29.981Z,27.70
2022-12-20T01:38:30.001Z,28.50
2022-12-20T01:39:29.979Z,27.40
2022-12-20T01:40:29.958Z,27.30
2022-12-20T01:41:29.964Z,26.30
2022-12-20T01:42:29.949Z,27.60
2022-12-20T01:43:29.970Z,28.60
2022-12-20T01:44:29.929Z,28.60
2022-12-20T01:45:29.954Z,26.60
2022-12-20T01:46:30.029Z,28.10
2022-12-20T01:47:29.919Z,27.80
2022-12-20T01:48:29.902Z,29.70
2022-12-20T01:49:29.883Z,30.10
2022-12-20T01:50:29.883Z,30.10
2022-12-20T01:51:29.852Z,30.60
2022-12-20T01:52:29.885Z,27.70
2022-12-20T01:53:29.844Z,28.90
2022-12-20T01:54:29.833Z,28.50
2022-12-20T01:55:29.860Z,28.70
2022-12-20T01:56:29.801Z,27.00
2022-12-20T01:57:29.800Z,28.30
2022-12-20T01:58:29.831Z,30.30
2022-12-20T01:59:29.778Z,31.20
2022-12-20T02:00:29.775Z,25.40
2022-12-20T02:01:29.918Z,28.80
2022-12-20T02:02:29.821Z,27.60
2022-12-20T02:03:29.779Z,25.60
2022-12-20T02:04:29.729Z,29.30
2022-12-20T02:05:29.746Z,26.60
2022-12-20T02:06:29.719Z,27.90
2022-12-20T02:07:29.703Z,27.90
2022-12-20T02:08:29.708Z,27.90
2022-12-20T02:09:29.686Z,27.60
2022-12-20T02:10:29.673Z,28.90
2022-12-20T02:11:29.661Z,28.60
2022-12-20T02:12:29.648Z,27.90
2022-12-20T02:13:29.659Z,27.60
2022-12-20T02:14:29.635Z,29.60
2022-12-20T02:15:29.617Z,29.60
2022-12-20T02:16:29.654Z,29.70
2022-12-20T02:17:29.600Z,28.60
2022-12-20T02:18:29.604Z,29.00
2022-12-20T02:19:29.593Z,26.00
2022-12-20T02:20:29.601Z,27.70
2022-12-20T02:21:29.568Z,29.80
2022-12-20T02:22:29.547Z,29.60
2022-12-20T02:23:29.537Z,27.80
2022-12-20T02:24:29.541Z,28.40
2022-12-20T02:25:29.546Z,30.30
2022-12-20T02:26:29.516Z,29.30
2022-12-20T02:27:29.496Z,28.60
2022-12-20T02:28:29.502Z,29.50
2022-12-20T02:29:30.518Z,27.20
2022-12-20T02:30:29.464Z,27.30
2022-12-20T02:31:29.482Z,30.30
2022-12-20T02:32:29.491Z,28.00
2022-12-20T02:33:29.466Z,29.40
2022-12-20T02:34:29.435Z,29.70
2022-12-20T02:35:29.412Z,30.90
2022-12-20T02:36:29.444Z,28.70
2022-12-20T02:37:29.392Z,28.80
2022-12-20T02:38:29.381Z,29.20
2022-12-20T02:39:29.368Z,25.80
2022-12-20T02:40:29.373Z,30.10
2022-12-20T02:41:29.376Z,33.20
2022-12-20T02:42:29.348Z,27.90
2022-12-20T02:43:29.371Z,28.10
2022-12-20T02:44:29.361Z,28.70
2022-12-20T02:45:29.361Z,29.90
2022-12-20T02:46:29.401Z,30.30
2022-12-20T02:47:29.302Z,28.90
2022-12-20T02:48:29.280Z,29.40
2022-12-20T02:49:29.289Z,27.90
2022-12-20T02:50:29.270Z,27.70
2022-12-20T02:51:29.286Z,27.70
2022-12-20T02:52:29.277Z,28.00
2022-12-20T02:53:29.263Z,28.70
2022-12-20T02:54:29.258Z,29.60
2022-12-20T02:55:29.227Z,26.90
2022-12-20T02:56:29.217Z,29.90
2022-12-20T02:57:29.242Z,28.70
2022-12-20T02:58:29.195Z,28.80
2022-12-20T02:59:29.222Z,29.10
2022-12-20T03:00:29.160Z,28.60
2022-12-20T03:01:29.280Z,29.80
2022-12-20T03:02:29.274Z,31.60
2022-12-20T03:03:29.241Z,26.50
2022-12-20T03:04:29.176Z,26.40
2022-12-20T03:05:29.158Z,28.10
2022-12-20T03:06:29.097Z,28.70
2022-12-20T03:07:29.109Z,28.70
2022-12-20T03:08:29.091Z,27.00
2022-12-20T03:09:29.097Z,27.70
2022-12-20T03:10:29.159Z,27.10
2022-12-20T03:11:29.052Z,28.20
2022-12-20T03:12:29.054Z,28.80
2022-12-20T03:13:29.053Z,27.80
2022-12-20T03:14:29.017Z,27.90
2022-12-20T03:15:29.015Z,27.30
2022-12-20T03:16:29.068Z,29.00
2022-12-20T03:17:29.020Z,29.70
2022-12-20T03:18:28.994Z,27.50
2022-12-20T03:20:00.926Z,28.40
2022-12-20T03:20:28.970Z,29.00
2022-12-20T03:21:28.967Z,24.90
2022-12-20T03:22:28.952Z,26.40
2022-12-20T03:23:28.959Z,29.00
2022-12-20T03:24:28.926Z,28.40
2022-12-20T03:25:28.970Z,28.30
2022-12-20T03:26:28.908Z,26.50
2022-12-20T03:27:28.915Z,30.10
2022-12-20T03:28:28.897Z,28.70
2022-12-20T03:29:28.909Z,27.90
2022-12-20T03:30:28.911Z,27.50
2022-12-20T03:31:28.936Z,31.60
2022-12-20T03:32:28.863Z,29.90
2022-12-20T03:33:28.887Z,27.60
2022-12-20T03:34:28.829Z,31.20
2022-12-20T03:35:28.822Z,29.20
2022-12-20T03:36:28.817Z,33.90
2022-12-20T03:37:28.800Z,29.60
2022-12-20T03:38:28.840Z,28.60
2022-12-20T03:39:28.773Z,30.30
2022-12-20T03:40:28.782Z,30.70
2022-12-20T03:41:28.765Z,31.30
2022-12-20T03:42:28.764Z,29.10
2022-12-20T03:43:28.790Z,29.10
2022-12-20T03:44:28.799Z,32.10
2022-12-20T03:45:28.725Z,28.90
2022-12-20T03:46:28.833Z,30.20
2022-12-20T03:47:28.717Z,41.10
2022-12-20T03:48:28.720Z,29.90
2022-12-20T03:49:28.754Z,30.60
2022-12-20T03:50:28.683Z,32.00
2022-12-20T03:51:28.684Z,29.60
2022-12-20T03:52:28.656Z,29.90
2022-12-20T03:53:28.652Z,32.10
2022-12-20T03:54:28.680Z,30.40
2022-12-20T03:55:28.623Z,29.50
2022-12-20T03:56:28.622Z,28.70
2022-12-20T03:57:28.625Z,31.00
2022-12-20T03:58:28.603Z,30.50
2022-12-20T03:59:28.592Z,31.80
2022-12-20T04:00:28.574Z,32.10
2022-12-20T04:01:28.701Z,29.80
2022-12-20T04:02:28.739Z,32.30
2022-12-20T04:03:28.663Z,30.90
2022-12-20T04:04:28.555Z,33.50
2022-12-20T04:05:28.546Z,29.80
2022-12-20T04:06:28.720Z,28.70
2022-12-20T04:07:28.501Z,29.90
2022-12-20T04:08:28.523Z,30.80
2022-12-20T04:09:28.536Z,34.30
2022-12-20T04:10:28.474Z,29.70
2022-12-20T04:11:28.475Z,30.60
2022-12-20T04:12:28.487Z,29.60
2022-12-20T04:13:28.447Z,28.50
2022-12-20T04:14:28.445Z,31.20
2022-12-20T04:15:28.529Z,32.30
2022-12-20T04:16:28.509Z,32.50
2022-12-20T04:17:28.463Z,30.10
2022-12-20T04:18:28.404Z,29.40
2022-12-20T04:19:28.421Z,30.30
2022-12-20T04:20:28.377Z,30.90
2022-12-20T04:21:28.382Z,29.00
2022-12-20T04:22:28.379Z,32.00
2022-12-20T04:23:29.358Z,28.10
2022-12-20T04:24:28.364Z,26.80
2022-12-20T04:25:28.346Z,27.90
2022-12-20T04:26:28.336Z,27.10
2022-12-20T04:27:28.318Z,28.70
2022-12-20T04:28:28.315Z,28.60
2022-12-20T04:29:28.303Z,27.10
2022-12-20T04:30:28.307Z,27.50
2022-12-20T04:31:28.357Z,29.00
2022-12-20T04:32:28.266Z,25.60
2022-12-20T04:33:28.246Z,27.50
2022-12-20T04:34:28.236Z,29.20
2022-12-20T04:35:28.254Z,26.20
2022-12-20T04:36:28.231Z,28.80
2022-12-20T04:37:28.221Z,27.90
2022-12-20T04:38:28.202Z,25.50
2022-12-20T04:39:28.223Z,25.50
2022-12-20T04:40:28.178Z,23.80
2022-12-20T04:41:28.186Z,25.20
2022-12-20T04:42:28.180Z,25.80
2022-12-20T04:43:28.163Z,25.50
2022-12-20T04:44:28.154Z,25.50
2022-12-20T04:45:28.137Z,24.30
2022-12-20T04:46:28.193Z,24.50
2022-12-20T04:47:28.163Z,24.50
2022-12-20T04:49:30.089Z,26.20
2022-12-20T04:50:28.108Z,24.50
2022-12-20T04:51:28.081Z,23.60
2022-12-20T04:52:28.102Z,26.30
2022-12-20T04:53:28.066Z,23.60
2022-12-20T04:54:28.061Z,22.60
2022-12-20T04:55:28.049Z,23.00
2022-12-20T04:56:28.049Z,24.00
2022-12-20T04:57:28.035Z,24.00
2022-12-20T04:58:28.008Z,24.30
2022-12-20T04:59:28.000Z,24.70
2022-12-20T05:00:27.995Z,24.30
2022-12-20T05:01:28.099Z,25.80
2022-12-20T05:02:28.153Z,23.60
2022-12-20T05:03:27.972Z,25.00
2022-12-20T05:04:31.675Z,26.10
2022-12-20T05:05:29.943Z,24.30
2022-12-20T05:06:27.960Z,26.60
2022-12-20T05:07:27.925Z,25.60
2022-12-20T05:08:27.906Z,25.80
2022-12-20T05:09:27.900Z,24.70
2022-12-20T05:10:27.884Z,24.60
2022-12-20T05:11:27.897Z,24.80
2022-12-20T05:12:27.886Z,26.50
2022-12-20T05:13:27.851Z,24.20
2022-12-20T05:14:27.830Z,26.50
2022-12-20T05:15:27.854Z,25.30
2022-12-20T05:16:27.895Z,23.70
2022-12-20T05:17:27.798Z,26.70
2022-12-20T05:18:27.830Z,24.20
2022-12-20T05:19:27.794Z,26.30
2022-12-20T05:20:27.780Z,25.50
2022-12-20T05:21:27.801Z,26.30
2022-12-20T05:22:27.775Z,24.10
2022-12-20T05:23:27.750Z,25.10
2022-12-20T05:24:27.741Z,27.00
2022-12-20T05:25:27.746Z,25.40
2022-12-20T05:26:27.768Z,26.00
2022-12-20T05:27:27.729Z,24.90
2022-12-20T05:28:27.717Z,24.70
2022-12-20T05:29:27.707Z,23.10
2022-12-20T05:30:27.700Z,25.60
2022-12-20T05:31:27.748Z,25.90
2022-12-20T05:32:27.710Z,24.70
2022-12-20T05:33:33.680Z,23.80
2022-12-20T05:34:28.681Z,24.80
2022-12-20T05:35:27.627Z,24.90
2022-12-20T05:36:27.639Z,25.60
2022-12-20T05:37:27.627Z,24.10
2022-12-20T05:38:27.615Z,25.10
2022-12-20T05:39:28.610Z,22.70
2022-12-20T05:40:27.595Z,22.40
2022-12-20T05:41:27.584Z,23.60
2022-12-20T05:42:27.571Z,24.80
2022-12-20T05:43:27.552Z,23.70
2022-12-20T05:44:27.557Z,23.30
2022-12-20T05:45:27.556Z,23.00
2022-12-20T05:46:27.559Z,30.70
2022-12-20T05:47:27.517Z,34.70
2022-12-20T05:48:27.515Z,22.60
2022-12-20T05:49:27.506Z,26.20
2022-12-20T05:50:27.509Z,26.00
2022-12-20T05:51:27.484Z,23.60
2022-12-20T05:52:27.471Z,23.80
2022-12-20T05:53:27.478Z,23.90
2022-12-20T05:54:27.460Z,22.90
2022-12-20T05:55:27.453Z,22.20
2022-12-20T05:56:27.448Z,23.50
2022-12-20T05:57:27.422Z,24.40
2022-12-20T05:58:27.429Z,23.40
2022-12-20T05:59:27.429Z,24.10
2022-12-20T06:00:27.390Z,23.80
2022-12-20T06:01:27.471Z,23.00
2022-12-20T06:02:27.462Z,24.40
2022-12-20T06:03:27.510Z,22.80
2022-12-20T06:04:27.365Z,22.00
2022-12-20T06:05:27.331Z,22.30
2022-12-20T06:06:27.344Z,23.50
2022-12-20T06:07:27.316Z,24.20
2022-12-20T06:08:27.299Z,27.30
2022-12-20T06:09:27.300Z,27.50
2022-12-20T06:10:27.313Z,24.20
2022-12-20T06:11:30.204Z,24.80
2022-12-20T06:12:27.292Z,25.80
2022-12-20T06:13:27.270Z,25.30
2022-12-20T06:14:27.256Z,24.80
2022-12-20T06:15:27.276Z,25.60
2022-12-20T06:16:27.292Z,24.40
2022-12-20T06:17:27.235Z,23.30
2022-12-20T06:18:27.252Z,24.40
2022-12-20T06:19:27.195Z,23.00
2022-12-20T06:20:27.219Z,24.60
2022-12-20T06:21:27.224Z,22.80
2022-12-20T06:22:27.205Z,22.60
2022-12-20T06:23:27.200Z,24.20
2022-12-20T06:24:27.168Z,23.40
2022-12-20T06:25:27.152Z,24.70
2022-12-20T06:26:27.157Z,24.40
2022-12-20T06:27:27.139Z,22.10
2022-12-20T06:28:27.113Z,23.00
2022-12-20T06:29:27.119Z,25.70
2022-12-20T06:30:33.362Z,23.80
2022-12-20T06:31:28.118Z,23.60
2022-12-20T06:32:27.067Z,24.20
2022-12-20T06:33:27.077Z,23.50
2022-12-20T06:34:27.058Z,24.00
2022-12-20T06:35:27.073Z,24.40
2022-12-20T06:36:27.040Z,24.90
2022-12-20T06:37:27.032Z,25.10
2022-12-20T06:38:27.020Z,25.00
2022-12-20T06:39:27.026Z,22.40
2022-12-20T06:40:26.996Z,22.60
2022-12-20T06:41:27.023Z,23.60
2022-12-20T06:42:26.977Z,26.00
2022-12-20T06:43:26.970Z,24.60
2022-12-20T06:44:26.976Z,24.20
2022-12-20T06:45:27.001Z,31.00
2022-12-20T06:46:26.989Z,24.60
2022-12-20T06:47:26.941Z,27.20
2022-12-20T06:48:26.923Z,26.20
2022-12-20T06:49:26.934Z,25.20
2022-12-20T06:50:26.925Z,25.20
2022-12-20T06:51:26.908Z,24.80
2022-12-20T06:52:26.894Z,25.70
2022-12-20T06:53:26.873Z,24.40
2022-12-20T06:54:26.852Z,24.40
2022-12-20T06:55:26.839Z,25.10
2022-12-20T06:56:26.863Z,22.60
2022-12-20T06:57:26.819Z,23.50
2022-12-20T06:58:26.816Z,23.70
2022-12-20T06:59:26.815Z,23.90
2022-12-20T07:00:26.834Z,24.90
2022-12-20T07:01:26.909Z,25.50
2022-12-20T07:02:27.902Z,24.10
2022-12-20T07:03:27.861Z,23.60
2022-12-20T07:04:26.750Z,23.40
2022-12-20T07:05:26.808Z,23.70
2022-12-20T07:06:26.741Z,26.20
2022-12-20T07:07:26.724Z,25.40
2022-12-20T07:08:26.712Z,27.40
2022-12-20T07:09:26.706Z,25.40
2022-12-20T07:10:26.704Z,25.50
2022-12-20T07:11:26.695Z,25.20
2022-12-20T07:12:26.670Z,21.80
2022-12-20T07:13:26.674Z,20.60
2022-12-20T07:14:26.682Z,25.00
2022-12-20T07:15:26.648Z,24.40
2022-12-20T07:16:26.768Z,27.60
2022-12-20T07:17:26.626Z,26.20
2022-12-20T07:18:26.616Z,26.10
2022-12-20T07:19:26.617Z,24.80
2022-12-20T07:20:26.665Z,25.40
2022-12-20T07:21:26.601Z,26.40
2022-12-20T07:22:26.614Z,25.10
2022-12-20T07:23:26.570Z,26.40
2022-12-20T07:24:26.568Z,25.80
2022-12-20T07:25:26.547Z,27.10
2022-12-20T07:26:26.537Z,29.40
2022-12-20T07:27:26.546Z,25.10
2022-12-20T07:28:26.533Z,27.00
2022-12-20T07:29:26.512Z,35.70
2022-12-20T07:30:26.493Z,26.40
2022-12-20T07:31:26.612Z,27.00
2022-12-20T07:32:26.495Z,25.70
2022-12-20T07:33:26.469Z,27.50
2022-12-20T07:34:26.506Z,26.30
2022-12-20T07:35:26.461Z,25.80
2022-12-20T07:36:26.420Z,28.30
2022-12-20T07:37:26.423Z,26.50
2022-12-20T07:38:26.428Z,23.80
2022-12-20T07:39:26.426Z,27.00
2022-12-20T07:40:26.423Z,23.90
2022-12-20T07:41:26.389Z,24.80
2022-12-20T07:42:33.556Z,25.90
2022-12-20T07:43:27.398Z,23.40
2022-12-20T07:44:26.367Z,26.30
2022-12-20T07:45:26.403Z,30.80
2022-12-20T07:46:26.373Z,27.40
2022-12-20T07:47:26.341Z,30.30
2022-12-20T07:48:26.351Z,29.70
2022-12-20T07:49:26.315Z,29.00
2022-12-20T07:50:26.329Z,29.40
2022-12-20T07:51:26.283Z,27.50
2022-12-20T07:52:26.317Z,30.50
2022-12-20T07:53:26.338Z,27.40
2022-12-20T07:54:26.279Z,28.30
2022-12-20T07:55:26.257Z,29.20
2022-12-20T07:56:26.309Z,25.30
2022-12-20T07:57:26.231Z,27.40
2022-12-20T07:58:26.223Z,25.20
2022-12-20T07:59:26.227Z,30.10
2022-12-20T08:00:26.199Z,27.90
2022-12-20T08:01:26.459Z,29.80
2022-12-20T08:02:26.343Z,27.10
2022-12-20T08:03:26.344Z,27.00
2022-12-20T08:04:26.188Z,28.00
2022-12-20T08:05:26.159Z,28.10
2022-12-20T08:06:26.148Z,25.50
2022-12-20T08:07:26.170Z,28.10
2022-12-20T08:08:26.217Z,25.50
2022-12-20T08:09:26.139Z,28.40
2022-12-20T08:10:26.187Z,35.50
2022-12-20T08:11:26.088Z,25.00
2022-12-20T08:12:26.088Z,28.10
2022-12-20T08:13:26.107Z,27.00
2022-12-20T08:14:26.086Z,25.70
2022-12-20T08:15:26.083Z,26.00
2022-12-20T08:16:26.147Z,25.70
2022-12-20T08:17:26.060Z,29.20
2022-12-20T08:18:26.032Z,30.00
2022-12-20T08:19:32.051Z,38.90
2022-12-20T08:20:27.040Z,65.70
2022-12-20T08:21:25.993Z,39.40
2022-12-20T08:22:25.996Z,40.30
2022-12-20T08:23:25.983Z,34.10
2022-12-20T08:24:26.035Z,28.50
2022-12-20T08:25:25.961Z,28.10
2022-12-20T08:26:25.979Z,29.00
2022-12-20T08:27:25.957Z,28.20
2022-12-20T08:28:25.942Z,27.80
2022-12-20T08:29:25.926Z,28.00
2022-12-20T08:30:25.946Z,27.80
2022-12-20T08:31:25.977Z,25.50
2022-12-20T08:32:25.901Z,29.80
2022-12-20T08:33:25.869Z,24.80
2022-12-20T08:34:25.870Z,25.50
2022-12-20T08:35:25.853Z,26.40
2022-12-20T08:36:26.888Z,25.50
2022-12-20T08:37:25.850Z,27.40
2022-12-20T08:38:25.829Z,26.00
2022-12-20T08:39:25.824Z,25.20
2022-12-20T08:40:25.905Z,24.20
2022-12-20T08:41:25.829Z,27.00
2022-12-20T08:42:25.795Z,25.50
2022-12-20T08:43:25.797Z,25.70
2022-12-20T08:44:25.813Z,26.70
2022-12-20T08:45:25.775Z,25.20
2022-12-20T08:46:25.809Z,21.90
2022-12-20T08:47:25.748Z,23.30
2022-12-20T08:48:25.726Z,23.40
2022-12-20T08:49:25.750Z,23.30
2022-12-20T08:50:25.802Z,20.00
2022-12-20T08:51:25.821Z,21.70
2022-12-20T08:52:25.707Z,24.40
2022-12-20T08:53:25.691Z,21.10
2022-12-20T08:54:25.677Z,21.70
2022-12-20T08:55:29.305Z,21.70
2022-12-20T08:56:25.649Z,24.10
2022-12-20T08:57:25.651Z,22.30
2022-12-20T08:58:25.645Z,19.90
2022-12-20T08:59:25.620Z,22.40
2022-12-20T09:00:25.728Z,17.80
2022-12-20T09:01:25.702Z,21.00
2022-12-20T09:02:25.782Z,21.70
2022-12-20T09:03:25.637Z,21.10
2022-12-20T09:04:25.596Z,20.60
2022-12-20T09:05:25.589Z,24.80
2022-12-20T09:06:25.564Z,21.90
2022-12-20T09:07:25.550Z,20.30
2022-12-20T09:08:25.546Z,22.40
2022-12-20T09:09:25.591Z,19.50
2022-12-20T09:10:25.562Z,20.80
2022-12-20T09:11:25.519Z,22.30
2022-12-20T09:12:25.497Z,21.70
2022-12-20T09:13:25.492Z,20.40
2022-12-20T09:14:25.494Z,20.40
2022-12-20T09:15:25.506Z,19.60
2022-12-20T09:16:25.526Z,20.90
2022-12-20T09:17:25.452Z,19.90
2022-12-20T09:18:25.427Z,21.80
2022-12-20T09:19:25.440Z,19.70
2022-12-20T09:20:57.336Z,21.20
2022-12-20T09:21:25.414Z,18.70
2022-12-20T09:22:25.407Z,20.00
2022-12-20T09:23:25.386Z,18.60
2022-12-20T09:24:25.398Z,19.90
2022-12-20T09:25:25.393Z,21.90
2022-12-20T09:26:25.376Z,20.30
2022-12-20T09:27:25.340Z,21.00
2022-12-20T09:28:26.352Z,22.50
2022-12-20T09:29:30.780Z,22.30
2022-12-20T09:30:27.349Z,21.90
2022-12-20T09:31:25.363Z,20.50
2022-12-20T09:32:25.291Z,18.90
2022-12-20T09:33:25.291Z,19.50
2022-12-20T09:34:25.286Z,19.40
2022-12-20T09:35:25.296Z,20.20
2022-12-20T09:36:25.262Z,19.40
2022-12-20T09:37:25.260Z,20.60
2022-12-20T09:38:25.231Z,24.60
2022-12-20T09:39:25.269Z,19.70
2022-12-20T09:40:25.300Z,21.10
2022-12-20T09:41:25.231Z,18.60
2022-12-20T09:42:25.218Z,24.50
2022-12-20T09:43:25.219Z,19.50
2022-12-20T09:44:25.242Z,17.70
2022-12-20T09:45:25.190Z,20.00
2022-12-20T09:46:25.193Z,17.60
2022-12-20T09:47:25.183Z,20.20
2022-12-20T09:48:25.141Z,18.90
2022-12-20T09:49:25.163Z,19.70
2022-12-20T09:50:25.212Z,21.60
2022-12-20T09:51:25.118Z,19.50
2022-12-20T09:52:25.115Z,19.80
2022-12-20T09:53:25.111Z,19.40
2022-12-20T09:54:25.085Z,20.20
2022-12-20T09:55:25.151Z,18.30
2022-12-20T09:56:25.072Z,20.60
2022-12-20T09:57:25.111Z,21.20
2022-12-20T09:58:25.040Z,20.50
2022-12-20T09:59:25.021Z,19.70
2022-12-20T10:00:25.093Z,19.70
2022-12-20T10:01:26.528Z,20.50
2022-12-20T10:02:57.157Z,22.40
2022-12-20T10:03:27.069Z,22.10
2022-12-20T10:04:25.197Z,20.90
2022-12-20T10:05:25.098Z,20.50
2022-12-20T10:06:24.938Z,20.40
2022-12-20T10:07:24.972Z,20.90
2022-12-20T10:08:24.948Z,19.60
2022-12-20T10:09:24.943Z,20.40
2022-12-20T10:10:24.939Z,20.60
2022-12-20T10:11:24.893Z,19.90
2022-12-20T10:12:24.907Z,22.50
2022-12-20T10:13:24.878Z,20.90
2022-12-20T10:14:24.888Z,19.80
2022-12-20T10:15:24.890Z,19.80
2022-12-20T10:16:24.974Z,17.70
2022-12-20T10:17:30.513Z,21.90
2022-12-20T10:18:25.858Z,20.80
2022-12-20T10:19:24.822Z,20.60
2022-12-20T10:20:24.820Z,20.80
2022-12-20T10:21:24.844Z,21.70
2022-12-20T10:22:24.846Z,21.10
2022-12-20T10:23:31.098Z,18.70
2022-12-20T10:24:25.790Z,22.70
2022-12-20T10:25:24.763Z,22.80
2022-12-20T10:26:24.764Z,19.70
2022-12-20T10:27:24.795Z,19.40
2022-12-20T10:28:24.776Z,19.80
2022-12-20T10:29:24.719Z,19.30
2022-12-20T10:30:24.742Z,21.00
2022-12-20T10:31:24.737Z,21.00
2022-12-20T10:32:24.715Z,19.20
2022-12-20T10:33:24.731Z,19.30
2022-12-20T10:34:24.697Z,18.70
2022-12-20T10:35:24.702Z,19.80
2022-12-20T10:36:24.665Z,17.80
2022-12-20T10:37:24.688Z,16.70
2022-12-20T10:38:24.693Z,18.80
2022-12-20T10:39:24.632Z,19.10
2022-12-20T10:40:34.406Z,18.10
2022-12-20T10:41:25.638Z,16.60
2022-12-20T10:42:24.610Z,17.10
2022-12-20T10:43:24.620Z,19.40
2022-12-20T10:44:24.688Z,20.30
2022-12-20T10:45:24.575Z,18.00
2022-12-20T10:46:24.608Z,20.30
2022-12-20T10:47:24.584Z,16.60
2022-12-20T10:48:24.704Z,22.10
2022-12-20T10:49:24.545Z,20.70
2022-12-20T10:50:24.547Z,16.90
2022-12-20T10:51:24.548Z,19.20
2022-12-20T10:52:24.532Z,19.30
2022-12-20T10:53:24.521Z,18.80
2022-12-20T10:54:24.496Z,17.80
2022-12-20T10:55:24.492Z,16.80
2022-12-20T10:56:24.504Z,17.50
2022-12-20T10:57:24.502Z,18.00
2022-12-20T10:58:24.490Z,15.20
2022-12-20T10:59:24.485Z,17.20
2022-12-20T11:00:24.440Z,16.60
2022-12-20T11:01:24.470Z,16.70
2022-12-20T11:02:25.736Z,17.00
2022-12-20T11:03:24.590Z,15.60
2022-12-20T11:04:24.431Z,14.70
2022-12-20T11:05:24.397Z,15.30
2022-12-20T11:06:24.373Z,13.60
2022-12-20T11:07:24.403Z,14.40
2022-12-20T11:08:37.499Z,16.80
2022-12-20T11:09:26.336Z,17.30
2022-12-20T11:10:24.380Z,15.00
2022-12-20T11:11:24.325Z,13.90
2022-12-20T11:12:24.312Z,14.50
2022-12-20T11:13:24.347Z,14.80
2022-12-20T11:14:24.292Z,15.50
2022-12-20T11:15:33.571Z,15.50
2022-12-20T11:16:25.401Z,17.10
2022-12-20T11:17:24.257Z,16.00
2022-12-20T11:18:24.261Z,16.00
2022-12-20T11:19:24.232Z,17.80
2022-12-20T11:20:24.223Z,18.50
2022-12-20T11:21:27.850Z,18.00
2022-12-20T11:22:25.213Z,18.30
2022-12-20T11:23:24.361Z,17.10
2022-12-20T11:24:24.192Z,19.20
2022-12-20T11:25:24.186Z,17.90
2022-12-20T11:26:24.169Z,18.10
2022-12-20T11:27:24.172Z,18.60
2022-12-20T11:28:24.148Z,14.20
2022-12-20T11:29:24.151Z,17.30
2022-12-20T11:30:24.145Z,16.40
2022-12-20T11:31:24.223Z,15.60
2022-12-20T11:32:24.084Z,14.90
2022-12-20T11:33:24.093Z,16.20
2022-12-20T11:34:24.096Z,16.60
2022-12-20T11:35:24.071Z,16.00
2022-12-20T11:36:24.077Z,15.60
2022-12-20T11:37:24.067Z,15.10
2022-12-20T11:38:24.074Z,18.30
2022-12-20T11:39:24.028Z,21.30
2022-12-20T11:40:24.029Z,20.00
2022-12-20T11:41:24.001Z,18.60
2022-12-20T11:42:24.129Z,21.90
2022-12-20T11:43:23.995Z,17.90
2022-12-20T11:44:26.327Z,22.50
2022-12-20T11:45:24.967Z,18.00
2022-12-20T11:46:24.018Z,19.30
2022-12-20T11:47:23.973Z,20.00
2022-12-20T11:48:23.951Z,17.70
2022-12-20T11:49:23.940Z,16.00
2022-12-20T11:50:23.915Z,18.10
2022-12-20T11:51:26.704Z,15.70
2022-12-20T11:52:24.922Z,14.70
2022-12-20T11:53:23.901Z,13.80
2022-12-20T11:54:23.891Z,18.80
2022-12-20T11:55:23.872Z,15.60
2022-12-20T11:56:23.870Z,15.60
2022-12-20T11:57:23.849Z,13.60
2022-12-20T11:58:23.905Z,14.00
2022-12-20T11:59:23.920Z,15.90
2022-12-20T12:00:23.863Z,14.90
2022-12-20T12:01:23.879Z,13.80
2022-12-20T12:02:23.924Z,13.20
2022-12-20T12:03:23.859Z,12.30
2022-12-20T12:04:23.820Z,13.80
2022-12-20T12:05:23.822Z,13.80
2022-12-20T12:06:23.793Z,12.30
2022-12-20T12:07:23.753Z,12.90
2022-12-20T12:08:23.752Z,12.00
2022-12-20T12:09:23.739Z,10.80
2022-12-20T12:10:23.723Z,12.60
2022-12-20T12:12:04.605Z,11.10
2022-12-20T12:12:25.698Z,13.10
2022-12-20T12:13:23.789Z,12.90
2022-12-20T12:14:23.705Z,11.90
2022-12-20T12:15:23.650Z,10.50
2022-12-20T12:16:23.697Z,33.20
2022-12-20T12:17:23.690Z,114.90
2022-12-20T12:18:23.635Z,22.50
2022-12-20T12:19:23.632Z,22.80
2022-12-20T12:20:23.639Z,23.70
2022-12-20T12:21:23.645Z,19.90
2022-12-20T12:22:23.604Z,15.30
2022-12-20T12:23:23.594Z,17.60
2022-12-20T12:24:23.600Z,16.70
2022-12-20T12:25:23.586Z,17.60
2022-12-20T12:26:23.568Z,14.80
2022-12-20T12:27:23.552Z,14.30
2022-12-20T12:28:23.561Z,12.00
2022-12-20T12:29:23.545Z,13.40
2022-12-20T12:30:23.559Z,12.20
2022-12-20T12:31:23.553Z,12.40
2022-12-20T12:32:23.483Z,13.20
2022-12-20T12:33:25.457Z,15.40
2022-12-20T12:34:24.485Z,12.10
2022-12-20T12:35:23.470Z,13.40
2022-12-20T12:36:23.453Z,11.40
2022-12-20T12:37:23.452Z,11.50
2022-12-20T12:38:23.434Z,10.50
2022-12-20T12:39:23.424Z,9.40
2022-12-20T12:40:23.438Z,11.20
2022-12-20T12:41:23.415Z,11.20
2022-12-20T12:42:23.391Z,11.50
2022-12-20T12:43:23.373Z,10.70
2022-12-20T12:44:23.383Z,11.80
2022-12-20T12:45:23.367Z,11.50
2022-12-20T12:46:23.428Z,10.90
2022-12-20T12:47:23.343Z,10.50
2022-12-20T12:48:23.342Z,12.10
2022-12-20T12:49:23.356Z,12.00
2022-12-20T12:50:23.344Z,12.20
2022-12-20T12:51:23.327Z,13.70
2022-12-20T12:52:23.314Z,12.10
2022-12-20T12:53:23.334Z,11.60